Home > Products > Valid Products > MTR

000
SAUS45 KABQ 010355 COR
MTRCQC
METAR KCQC 010353Z AUTO 10015KT 10SM -RA OVC085 13/12 A3037 RMK AO2
PK WND 06028/0255 SLP220 P0003 T01280117





000
SAUS45 KABQ 010354
MTRCQC
METAR KCQC 010353Z AUTO 10015KT 10SM -RA OVC085 13/12 A3037 RMK AO2
PK WND 06028/0255 SLP220 P0003 T01280117





000
SAUS45 KABQ 010354
MTRTCS
METAR KTCS 010353Z AUTO 35009G18KT -RA OVC060 22/15 A3020 RMK AO2
SLP149 P0000 T02220150 TSNO $





000
SAUS45 KABQ 010353
MTRABQ
METAR KABQ 010352Z 10017KT 10SM FEW060 BKN130 BKN250 18/12 A3026 RMK
AO2 SLP178 T01830122





000
SAUS45 KABQ 010258 COR
MTRCQC
METAR KCQC 010253Z AUTO 06020G26KT 7SM -RA BKN075 OVC090 13/11 A3037
RMK AO2 PK WND 06026/0251 RAB14 SLP218 P0031 60055 T01280111





000
SAUS45 KABQ 010256 COR
MTRCQC
METAR KCQC 010253Z AUTO 06020G26KT 7SM -RA BKN075 OVC090 13/11 A3037
RMK AO2 PK WND 06026/0251 RAB14 SLP218 P0031 60055 T01280111





000
SAUS45 KABQ 010255 COR
MTRCQC
METAR KCQC 010253Z AUTO 06020G26KT 7SM -RA BKN075 OVC090 13/11 A3037
RMK AO2 PK WND 06026/0251 RAB14 SLP218 P0031 60055 T01280111





000
SAUS45 KABQ 010255
MTRCQC
METAR KCQC 010253Z AUTO 06020G26KT 7SM -RA BKN075 OVC090 13/11 A3037
RMK AO2 PK WND 06026/0251 RAB14 SLP218 P0031 60055 T01280111





000
SAUS45 KABQ 010254
MTRTCS
METAR KTCS 010253Z AUTO 28017KT -RA BKN120 22/16 A3015 RMK AO2
RAE04B36 SLP134 P0000 60000 T02170156 53018 TSNO $





000
SAUS45 KABQ 010253
MTRABQ
METAR KABQ 010252Z 11016KT 10SM FEW040 SCT060 BKN100 BKN200 19/13
A3025 RMK AO2 RAE04 SLP175 MTN TOPS OBSC E P0000 60003 T01940133
53020





000
SAUS45 KABQ 010204 COR
MTRCQC
SPECI KCQC 010159Z AUTO 03010G15KT 2SM +RA BR FEW008 SCT012 OVC027
12/11 A3040 RMK AO2 P0009 T01170106 $





000
SAUS45 KABQ 010202 COR
MTRCQC
SPECI KCQC 010159Z AUTO 03010G15KT 2SM +RA BR FEW008 SCT012 OVC027
12/11 A3040 RMK AO2 P0009 T01170106 $





000
SAUS45 KABQ 010201 COR
MTRCQC
SPECI KCQC 010159Z AUTO 03010G15KT 2SM +RA BR FEW008 SCT012 OVC027
12/11 A3040 RMK AO2 P0009 T01170106 $





000
SAUS45 KABQ 010201
MTRCQC
SPECI KCQC 010159Z AUTO 03010G15KT 2SM +RA BR FEW008 SCT012 OVC027
12/11 A3040 RMK AO2 P0009 T01170106 $





000
SAUS45 KABQ 010159 COR
MTRCQC
METAR KCQC 010154Z AUTO 04006KT 1 1/2SM +RA BR 12/11 A3041 RMK AO2
PK WND 36036/0142 RAB39 SLP235 P0024 T01170111 $





000
SAUS45 KABQ 010157 COR
MTRCQC
METAR KCQC 010154Z AUTO 04006KT 1 1/2SM +RA BR 12/11 A3041 RMK AO2
PK WND 36036/0142 RAB39 SLP235 P0024 T01170111 $





000
SAUS45 KABQ 010156 COR
MTRCQC
METAR KCQC 010154Z AUTO 04006KT 1 1/2SM +RA BR 12/11 A3041 RMK AO2
PK WND 36036/0142 RAB39 SLP235 P0024 T01170111 $





000
SAUS45 KABQ 010155
MTRCQC
METAR KCQC 010154Z AUTO 04006KT 1 1/2SM +RA BR 12/11 A3041 RMK AO2
PK WND 36036/0142 RAB39 SLP235 P0024 T01170111 $





000
SAUS45 KABQ 010154
MTRTCS
METAR KTCS 010153Z AUTO 28013G23KT -RA SCT100 24/14 A3013 RMK AO2 PK
WND 30029/0059 WSHFT 0059 RAB47 SLP125 P0000 T02440139 TSNO $





000
SAUS45 KABQ 010153
MTRABQ
METAR KABQ 010152Z 03004KT 10SM -RA FEW040 SCT060 BKN100 OVC200
20/14 A3022 RMK AO2 WSHFT 0122 LTG DSNT E TSE23 SLP162 MTNS OBSC NE
P0003 T02000139





000
SAUS45 KABQ 010148
MTRCQC
SPECI KCQC 010147Z AUTO 03016G36KT 1 3/4SM +RA BR 12/11 A3040 RMK
AO2 PK WND 36036/0142 RAB39 P0003 $





000
SAUS45 KABQ 010143
MTRABQ
SPECI KABQ 010142Z 02009KT 10SM -RA FEW040 SCT060 BKN100 OVC200
20/14 A3021 RMK AO2 WSHFT 0122 LTG DSNT E TSE23 MTNS OBSC NE-SE
P0002 T02000144





000
SAUS45 KABQ 010124
MTRABQ
SPECI KABQ 010123Z 04011KT 10SM -RA SCT060 BKN100 OVC200 21/13 A3022
RMK AO2 LTG DSNT E-S TSE23 MTNS OBSC NE P0000 T02110133





000
SAUS45 KABQ 010120
MTRTCS
SPECI KTCS 010119Z AUTO 28013G19KT CLR 26/14 A3012 RMK AO2 PK WND
30029/0059 WSHFT 0059 T02560139 TSNO $





000
SAUS45 KABQ 010118
MTRCQC
SPECI KCQC 010116Z AUTO 09014G25KT 10SM FEW017 BKN026 OVC039 18/13
A3030 RMK AO2 T01830133





000
SAUS45 KABQ 010054
MTRTCS
METAR KTCS 010053Z AUTO 21011G18KT 170V250 CLR 29/14 A3011 RMK AO2
SLP110 T02890139 TSNO $





000
SAUS45 KABQ 010054
MTRCQC
METAR KCQC 010053Z AUTO 13012KT 10SM BKN041 BKN055 19/13 A3029 RMK
AO2 SLP174 T01940133





000
SAUS45 KABQ 010053
MTRABQ
METAR KABQ 010052Z 33014G23KT 10SM -TSRA SCT060 BKN100CB BKN200
23/11 A3021 RMK AO2 PK WND 30035/0000 LTG DSNT NE-S RAB00 TSE06B21
SLP160 TS OHD-N MOV E P0000 T02330106





000
SAUS45 KABQ 010022
MTRABQ
SPECI KABQ 010021Z 31016G24KT 10SM -TSRA FEW060 BKN110CB BKN180
BKN250 22/11 A3020 RMK AO2 PK WND 30035/0000 LTG DSNT NE AND SW AND
W RAB00 TSE06B21 TS NW MOV E P0000 T02220111





000
SAUS45 KABQ 010013
MTRABQ
SPECI KABQ 010012Z 30021G34KT 10SM VCTS -RA FEW060 BKN110CB BKN180
BKN250 22/12 A3021 RMK AO2 PK WND 30035/0000 LTG DSNT SW-NW RAB00
TSE06 TS NW MOV E P0000 T02220117





000
SAUS45 KABQ 312358 COR
MTRCQC
METAR KCQC 312353Z AUTO 13014G18KT 10SM BKN050 BKN090 22/13 A3029
RMK AO2 SLP170 T02220133 10233 20172 56007





000
SAUS45 KABQ 312356 COR
MTRCQC
METAR KCQC 312353Z AUTO 13014G18KT 10SM BKN050 BKN090 22/13 A3029
RMK AO2 SLP170 T02220133 10233 20172 56007





000
SAUS45 KABQ 312355 COR
MTRCQC
METAR KCQC 312353Z AUTO 13014G18KT 10SM BKN050 BKN090 22/13 A3029
RMK AO2 SLP170 T02220133 10233 20172 56007





000
SAUS45 KABQ 312354
MTRCQC
METAR KCQC 312353Z AUTO 13014G18KT 10SM BKN050 BKN090 22/13 A3029
RMK AO2 SLP170 T02220133 10233 20172 56007





000
SAUS45 KABQ 312354
MTRTCS
METAR KTCS 312353Z AUTO 12010KT CLR 29/14 A3009 RMK AO2 SLP103
T02940144 10317 20261 56014 TSNO $





000
SAUS45 KABQ 312352
MTRABQ
METAR KABQ 312352Z 25009KT 10SM FEW065 SCT110 BKN180 OVC250 27/14
A3018 RMK AO2 LTG DSNT SW-NW SLP143 SHRA DSNT NW T02670144 10278
20233 55004





000
SAUS45 KABQ 312254
MTRCQC
METAR KCQC 312253Z AUTO 21009KT 10SM SCT042 23/13 A3030 RMK AO2
SLP170 T02280128





000
SAUS45 KABQ 312254
MTRTCS
METAR KTCS 312253Z AUTO 12006KT BKN070 31/14 A3010 RMK AO2 SLP105
T03060139 TSNO $





000
SAUS45 KABQ 312252
MTRABQ
METAR KABQ 312252Z 22008KT 10SM FEW065 SCT100 BKN180 27/13 A3018 RMK
AO2 SLP138 T02720128





000
SAUS45 KABQ 312154
MTRCQC
METAR KCQC 312153Z AUTO 17009KT 10SM CLR 23/13 A3030 RMK AO2 SLP170
T02330128





000
SAUS45 KABQ 312154
MTRTCS
METAR KTCS 312153Z AUTO 15006KT CLR 31/13 A3012 RMK AO2 SLP107
T03110128 TSNO $





000
SAUS45 KABQ 312153
MTRABQ
METAR KABQ 312152Z 22005KT 10SM FEW055 BKN160 27/13 A3019 RMK AO2
SLP142 CB DSNT SW-NW T02670133





000
SAUS45 KABQ 312054
MTRTCS
METAR KTCS 312053Z AUTO 17006KT CLR 29/13 A3014 RMK AO2 SLP116
T02940128 58026 TSNO $





000
SAUS45 KABQ 312054
MTRCQC
METAR KCQC 312053Z AUTO VRB03KT 10SM FEW033 22/13 A3032 RMK AO2
SLP180 T02170128 58017





000
SAUS45 KABQ 312053
MTRABQ
METAR KABQ 312052Z VRB03KT 10SM FEW050 BKN190 27/14 A3020 RMK AO2
SLP148 CB DSNT N AND SW-NW T02670139 58024





000
SAUS45 KABQ 311954
MTRCQC
METAR KCQC 311953Z AUTO 23005KT 10SM FEW029 21/13 A3034 RMK AO2
SLP187 T02060128





000
SAUS45 KABQ 311954
MTRTCS
METAR KTCS 311953Z AUTO CLR 29/13 A3017 RMK AO2 SLP129 T02890133
TSNO $





000
SAUS45 KABQ 311953
MTRABQ
METAR KABQ 311952Z VRB03KT 10SM FEW042 FEW150 SCT250 25/14 A3023 RMK
AO2 SLP158 CB DSNT N AND SW-W T02500144





000
SAUS45 KABQ 311929
MTRCQC
SPECI KCQC 311928Z AUTO 21004KT 10SM FEW026 21/13 A3035 RMK AO2
T02110128





000
SAUS45 KABQ 311855
MTRCQC
METAR KCQC 311853Z AUTO 00000KT 10SM BKN022 OVC028 19/12 A3037 RMK
AO2 SLP204 T01890122





000
SAUS45 KABQ 311854
MTRTCS
METAR KTCS 311853Z AUTO 17009KT CLR 28/14 A3020 RMK AO2 SLP138
T02780144 TSNO $





000
SAUS45 KABQ 311853
MTRABQ
METAR KABQ 311852Z VRB03KT 10SM SCT039 SCT150 SCT250 24/14 A3026 RMK
AO2 SLP170 T02440139





000
SAUS45 KABQ 311754
MTRCQC
METAR KCQC 311753Z AUTO 19006KT 10SM OVC020 17/12 A3038 RMK AO2
SLP208 T01720122 10183 20122 58005





000
SAUS45 KABQ 311754
MTRTCS
METAR KTCS 311753Z AUTO 15008KT CLR 26/16 A3023 RMK AO2 SLP153
T02610156 10261 20189 58006 TSNO $





000
SAUS45 KABQ 311753
MTRABQ
METAR KABQ 311752Z 22006KT 10SM SCT037 SCT150 BKN210 24/14 A3028 RMK
AO2 SLP177 MTN TOPS OBSC NE T02390144 10244 20172 56007





000
SAUS45 KABQ 311716
MTRCQC
SPECI KCQC 311715Z AUTO 17010KT 10SM SCT013 BKN020 16/13 A3039 RMK
AO2 T01610128





000
SAUS45 KABQ 311655
MTRCQC
METAR KCQC 311653Z AUTO 17007KT 10SM SCT006 OVC013 15/13 A3040 RMK
AO2 SLP219 T01500128





000
SAUS45 KABQ 311654
MTRTCS
METAR KTCS 311653Z AUTO 14006KT CLR 24/16 A3024 RMK AO2 SLP156
T02390161 TSNO $





000
SAUS45 KABQ 311653
MTRABQ
METAR KABQ 311652Z 20004KT 10SM FEW032 SCT150 BKN230 23/13 A3029 RMK
AO2 SLP182 T02280133





000
SAUS45 KABQ 311631
MTRCQC
SPECI KCQC 311629Z AUTO 16008KT 6SM BR OVC006 14/13 A3041 RMK AO2
CIG 003V010 T01390128





000
SAUS45 KABQ 311554
MTRTCS
METAR KTCS 311553Z AUTO 16005KT CLR 22/17 A3025 RMK AO2 SLP163
T02220167 TSNO $





000
SAUS45 KABQ 311554
MTRCQC
METAR KCQC 311553Z AUTO 17006KT 3SM BR OVC002 13/12 A3040 RMK AO2
CIG 002V006 SLP222 T01280122





000
SAUS45 KABQ 311553
MTRABQ
METAR KABQ 311552Z 12008KT 10SM FEW030 FEW100 BKN250 22/14 A3028 RMK
AO2 SLP176 T02170144





000
SAUS45 KABQ 311551
MTRCQC
SPECI KCQC 311550Z AUTO 18007KT 3SM BR OVC002 13/13 A3040 RMK AO2
CIG 002V006





000
SAUS45 KABQ 311530
MTRCQC
SPECI KCQC 311529Z AUTO 18006KT 2SM BR OVC002 13/12 A3040 RMK AO2
T01280122





000
SAUS45 KABQ 311519
MTRCQC
SPECI KCQC 311518Z AUTO 19007KT 1 3/4SM BR OVC002 13/12 A3039 RMK
AO2 T01280122





000
SAUS45 KABQ 311500
MTRCQC
SPECI KCQC 311459Z AUTO 17006KT 3SM BR OVC002 13/12 A3040 RMK AO2
T01280122





000
SAUS45 KABQ 311454
MTRTCS
METAR KTCS 311453Z AUTO 16003KT CLR 21/16 A3025 RMK AO2 SLP157
T02110156 50004 TSNO $





000
SAUS45 KABQ 311454
MTRCQC
METAR KCQC 311453Z AUTO 16006KT 1 1/4SM BR OVC002 13/12 A3040 RMK
AO2 SLP221 T01280122 51010





000
SAUS45 KABQ 311452
MTRABQ
METAR KABQ 311452Z 03005KT 10SM FEW027 FEW100 BKN260 21/14 A3030 RMK
AO2 SLP187 SHRA DSNT W T02060139 51007





000
SAUS45 KABQ 311446
MTRCQC
SPECI KCQC 311445Z AUTO 16007KT 3/4SM BR VV002 13/12 A3039 RMK AO2
T01280122





000
SAUS45 KABQ 311427
MTRCQC
SPECI KCQC 311426Z AUTO 16006KT 1/4SM FG VV002 13/12 A3039 RMK AO2
T01280122





000
SAUS45 KABQ 311354
MTRTCS
METAR KTCS 311353Z AUTO 00000KT FEW090 20/16 A3025 RMK AO2 SLP152
T02000156 TSNO $





000
SAUS45 KABQ 311354
MTRCQC
METAR KCQC 311353Z AUTO 12005KT 1/2SM FG VV002 12/12 A3039 RMK AO2
SLP215 T01220122





000
SAUS45 KABQ 311352
MTRABQ
METAR KABQ 311352Z 03010KT 10SM FEW045 FEW090 BKN220 19/14 A3030 RMK
AO2 SLP179 T01940144





000
SAUS45 KABQ 311346
MTRCQC
SPECI KCQC 311345Z AUTO 12005KT 1 1/2SM BR OVC002 13/12 A3039 RMK
AO2 T01280122





000
SAUS45 KABQ 311326 COR
MTRCQC
SPECI KCQC 311324Z AUTO 09006KT 5SM BR OVC002 12/12 A3038 RMK AO2
T01220117





000
SAUS45 KABQ 311325
MTRCQC
SPECI KCQC 311324Z AUTO 09006KT 5SM BR OVC002 12/12 A3038 RMK AO2
T01220117





000
SAUS45 KABQ 311314
MTRCQC
SPECI KCQC 311313Z AUTO 06005KT 2SM BR OVC002 12/12 A3038 RMK AO2
T01220117





000
SAUS45 KABQ 311302
MTRCQC
SPECI KCQC 311301Z AUTO 08004KT 4SM BR OVC002 12/12 A3038 RMK AO2
T01220122





000
SAUS45 KABQ 311254
MTRCQC
METAR KCQC 311253Z AUTO 07003KT 2 1/2SM BR OVC002 12/12 A3037 RMK
AO2 VIS 1 1/2V4 SLP207 T01220117





000
SAUS45 KABQ 311254
MTRTCS
METAR KTCS 311253Z AUTO 00000KT OVC100 19/15 A3024 RMK AO2 SLP151
T01940150 TSNO $





000
SAUS45 KABQ 311252
MTRABQ
METAR KABQ 311252Z 08006KT 10SM FEW026 FEW090 SCT220 18/13 A3029 RMK
AO2 SLP171 T01780133





000
SAUS45 KABQ 311229
MTRCQC
SPECI KCQC 311228Z AUTO 05005KT 1/2SM FG VV002 12/12 A3037 RMK AO2
T01220117





000
SAUS45 KABQ 311219
MTRCQC
SPECI KCQC 311217Z AUTO 05003KT 1 3/4SM BR OVC002 12/12 A3037 RMK
AO2 VIS 1V4 T01220117





000
SAUS45 KABQ 311208
MTRCQC
SPECI KCQC 311207Z AUTO 12003KT 6SM BR OVC002 12/12 A3037 RMK AO2
T01220117





000
SAUS45 KABQ 311200
MTRCQC
SPECI KCQC 311159Z AUTO 17004KT 2SM BR OVC002 12/12 A3037 RMK AO2
PRESRR T01220117





000
SAUS45 KABQ 311158 COR
MTRCQC
METAR KCQC 311153Z AUTO 16006KT 3/4SM BR VV002 12/12 A3036 RMK AO2
RAB05E23 SLP192 P0001 60001 70002 T01220117 10144 20122 58010





000
SAUS45 KABQ 311156 COR
MTRCQC
METAR KCQC 311153Z AUTO 16006KT 3/4SM BR VV002 12/12 A3036 RMK AO2
RAB05E23 SLP192 P0001 60001 70002 T01220117 10144 20122 58010





000
SAUS45 KABQ 311155 COR
MTRCQC
METAR KCQC 311153Z AUTO 16006KT 3/4SM BR VV002 12/12 A3036 RMK AO2
RAB05E23 SLP192 P0001 60001 70002 T01220117 10144 20122 58010





000
SAUS45 KABQ 311154
MTRTCS
METAR KTCS 311153Z AUTO 02009G18KT FEW095 19/14 A3023 RMK AO2 SLP149
60000 70011 T01940144 10222 20194 51005 TSNO $





000
SAUS45 KABQ 311154
MTRCQC
METAR KCQC 311153Z AUTO 16006KT 3/4SM BR VV002 12/12 A3036 RMK AO2
RAB05E23 SLP192 P0001 60001 70002 T01220117 10144 20122 58010





000
SAUS45 KABQ 311152
MTRABQ
METAR KABQ 311152Z 10011KT 10SM FEW026 SCT110 SCT200 17/13 A3028 RMK
AO2 SLP168 MTNS OBSC NE-SE 60005 70012 T01720133 10206 20172 51006





000
SAUS45 KABQ 311151 COR
MTRCQC
SPECI KCQC 311146Z AUTO 16008KT 1 1/4SM BR OVC002 12/12 A3035 RMK
AO2 RAB05E23 P0001 T01220117





000
SAUS45 KABQ 311149 COR
MTRCQC
SPECI KCQC 311146Z AUTO 16008KT 1 1/4SM BR OVC002 12/12 A3035 RMK
AO2 RAB05E23 P0001 T01220117





000
SAUS45 KABQ 311148 COR
MTRCQC
SPECI KCQC 311146Z AUTO 16008KT 1 1/4SM BR OVC002 12/12 A3035 RMK
AO2 RAB05E23 P0001 T01220117





000
SAUS45 KABQ 311147
MTRCQC
SPECI KCQC 311146Z AUTO 16008KT 1 1/4SM BR OVC002 12/12 A3035 RMK
AO2 RAB05E23 P0001 T01220117





000
SAUS45 KABQ 311054
MTRCQC
METAR KCQC 311053Z AUTO 11009KT 1/2SM FG VV002 12/12 A3039 RMK AO2
SLP201 T01220122





000
SAUS45 KABQ 311054
MTRTCS
METAR KTCS 311053Z AUTO 01008KT FEW100 20/15 A3023 RMK AO2 SLP145
T02000150 TSNO $





000
SAUS45 KABQ 311052
MTRABQ
METAR KABQ 311052Z 09013KT 10SM FEW030 SCT110 SCT200 18/13 A3028 RMK
AO2 SLP168 MTNS OBSC NE-SE T01780133





000
SAUS45 KABQ 311002
MTRCQC
SPECI KCQC 311001Z AUTO 11011KT 3/4SM BR VV002 12/12 A3039 RMK AO2
T01220122





000
SAUS45 KABQ 310954
MTRTCS
METAR KTCS 310953Z AUTO 35005KT FEW110 21/17 A3022 RMK AO2 SLP138
T02060172 TSNO $





000
SAUS45 KABQ 310954
MTRCQC
METAR KCQC 310953Z AUTO 12011KT 1 1/4SM BR OVC002 13/12 A3039 RMK
AO2 SLP204 T01280122





000
SAUS45 KABQ 310952
MTRABQ
METAR KABQ 310952Z 09012KT 10SM SCT022 SCT027 BKN120 18/14 A3028 RMK
AO2 RAE03 SLP166 MTNS OBSC NE-SE P0000 T01830144





000
SAUS45 KABQ 310951
MTRCQC
SPECI KCQC 310950Z AUTO 13012KT 1 3/4SM BR OVC002 13/12 A3038 RMK
AO2





000
SAUS45 KABQ 310937
MTRCQC
SPECI KCQC 310936Z AUTO 13011KT 4SM BR OVC002 13/12 A3039 RMK AO2
T01280122





000
SAUS45 KABQ 310931
MTRCQC
SPECI KCQC 310929Z AUTO 10009KT 2 1/2SM BR OVC002 13/12 A3040 RMK
AO2 T01280122





000
SAUS45 KABQ 310920
MTRCQC
SPECI KCQC 310919Z AUTO 10012KT 3/4SM BR VV002 13/12 A3040 RMK AO2
T01280122





000
SAUS45 KABQ 310907
MTRCQC
SPECI KCQC 310906Z AUTO 09010KT 1 3/4SM BR OVC002 13/12 A3040 RMK
AO2 T01280122





000
SAUS45 KABQ 310858 COR
MTRCQC
METAR KCQC 310853Z AUTO 10012KT 4SM BR OVC002 13/12 A3040 RMK AO2
RAB26E36 SLP200 P0000 60000 T01280122 53003





000
SAUS45 KABQ 310856 COR
MTRCQC
METAR KCQC 310853Z AUTO 10012KT 4SM BR OVC002 13/12 A3040 RMK AO2
RAB26E36 SLP200 P0000 60000 T01280122 53003





000
SAUS45 KABQ 310855 COR
MTRCQC
METAR KCQC 310853Z AUTO 10012KT 4SM BR OVC002 13/12 A3040 RMK AO2
RAB26E36 SLP200 P0000 60000 T01280122 53003





000
SAUS45 KABQ 310854
MTRCQC
METAR KCQC 310853Z AUTO 10012KT 4SM BR OVC002 13/12 A3040 RMK AO2
RAB26E36 SLP200 P0000 60000 T01280122 53003





000
SAUS45 KABQ 310854
MTRTCS
METAR KTCS 310853Z AUTO 36008KT CLR 21/17 A3021 RMK AO2 RAE02 SLP137
P0000 60000 T02110167 50017 TSNO $





000
SAUS45 KABQ 310852
MTRABQ
METAR KABQ 310852Z 13014G23KT 10SM -RA SCT027 BKN065 OVC090 17/15
A3025 RMK AO2 PK WND 14031/0839 LTG DSNT SW AND W RAB00 TSB03E49
SLP164 MTNS OBSC NE-SE P0005 60005 T01720150 50005





000
SAUS45 KABQ 310809
MTRABQ
SPECI KABQ 310809Z 10014KT 3SM -TSRA FEW031 BKN080CB BKN100 19/14
A3028 RMK AO2 LTG DSNT S-W RAB00 TSB03 TS OHD MOV SE MTNS OBSC NE-SE
P0000 T01940144





000
SAUS45 KABQ 310754
MTRCQC
METAR KCQC 310753Z AUTO 11011KT 10SM OVC004 13/12 A3038 RMK AO2
SLP190 T01330122





000
SAUS45 KABQ 310754
MTRTCS
METAR KTCS 310753Z AUTO 00000KT -RA FEW080 OVC095 22/16 A3022 RMK
AO2 RAB48 SLP139 P0000 T02170161 TSNO $





000
SAUS45 KABQ 310752
MTRABQ
METAR KABQ 310752Z 09014KT 10SM VCTS FEW027 BKN085CB BKN110 19/14
A3028 RMK AO2 PK WND 10027/0713 LTG DSNT S-NW SLP170 TS W-S MOV SE
MTNS OBSC NE-SE T01940144





000
SAUS45 KABQ 310718
MTRABQ
SPECI KABQ 310718Z 10018G27KT 10SM VCTS FEW027 BKN085CB 19/14 A3025
RMK AO2 PK WND 10027/0713 LTG DSNT ALQDS TS W MOV SE MTNS OBSC NE-SE
T01940144





000
SAUS45 KABQ 310658 COR
MTRCQC
METAR KCQC 310653Z AUTO 11014KT 5SM BR OVC004 13/12 A3039 RMK AO2
RAB23E34 CIG 003V007 SLP192 P0000 T01330122 402830133





000
SAUS45 KABQ 310656 COR
MTRCQC
METAR KCQC 310653Z AUTO 11014KT 5SM BR OVC004 13/12 A3039 RMK AO2
RAB23E34 CIG 003V007 SLP192 P0000 T01330122 402830133





000
SAUS45 KABQ 310655 COR
MTRCQC
METAR KCQC 310653Z AUTO 11014KT 5SM BR OVC004 13/12 A3039 RMK AO2
RAB23E34 CIG 003V007 SLP192 P0000 T01330122 402830133





000
SAUS45 KABQ 310654
MTRCQC
METAR KCQC 310653Z AUTO 11014KT 5SM BR OVC004 13/12 A3039 RMK AO2
RAB23E34 CIG 003V007 SLP192 P0000 T01330122 402830133





000
SAUS45 KABQ 310654
MTRTCS
METAR KTCS 310653Z AUTO 07006KT BKN100 BKN120 22/16 A3019 RMK AO2
RAE37 SLP128 P0000 T02220156 403500183 TSNO $





000
SAUS45 KABQ 310652
MTRABQ
METAR KABQ 310652Z 09019KT 10SM FEW027 SCT080 SCT150 20/14 A3024 RMK
AO2 PK WND 08028/0618 LTG DSNT ALQDS RAE23 TSB0558E13B15E29 SLP156
MTNS OBSC NE-SE P0000 T02000144 403220183





000
SAUS45 KABQ 310635
MTRABQ
SPECI KABQ 310635Z 09019G24KT 10SM FEW027 SCT080 SCT150 20/15 A3023
RMK AO2 PK WND 08028/0618 LTG DSNT ALQDS RAE23 TSB0558E13B15E29 MTNS
OBSC NE-SE P0000 T02000150





000
SAUS45 KABQ 310632 COR
MTRCQC
SPECI KCQC 310624Z AUTO 10016KT 6SM -RA BR BKN003 OVC007 13/13 A3039
RMK AO2 RAB23 CIG 002V006 P0000 T01330128





000
SAUS45 KABQ 310631 COR
MTRCQC
SPECI KCQC 310624Z AUTO 10016KT 6SM -RA BR BKN003 OVC007 13/13 A3039
RMK AO2 RAB23 CIG 002V006 P0000 T01330128





000
SAUS45 KABQ 310630 COR
MTRCQC
SPECI KCQC 310624Z AUTO 10016KT 6SM -RA BR BKN003 OVC007 13/13 A3039
RMK AO2 RAB23 CIG 002V006 P0000 T01330128





000
SAUS45 KABQ 310629 COR
MTRCQC
SPECI KCQC 310624Z AUTO 10016KT 6SM -RA BR BKN003 OVC007 13/13 A3039
RMK AO2 RAB23 CIG 002V006 P0000 T01330128





000
SAUS45 KABQ 310627 COR
MTRCQC
SPECI KCQC 310624Z AUTO 10016KT 6SM -RA BR BKN003 OVC007 13/13 A3039
RMK AO2 RAB23 CIG 002V006 P0000 T01330128





000
SAUS45 KABQ 310626
MTRCQC
SPECI KCQC 310624Z AUTO 10016KT 6SM -RA BR BKN003 OVC007 13/13 A3039
RMK AO2 RAB23 CIG 002V006 P0000 T01330128





000
SAUS45 KABQ 310604
MTRABQ
SPECI KABQ 310604Z 09021KT 10SM -TSRA FEW040 SCT080CB BKN110 20/16
A3024 RMK AO2 LTG DSNT E-S TSB0558 TS OHD MOV SE MTNS OBSC NE-SE
P0000 T02000156





000
SAUS45 KABQ 310558 COR
MTRCQC
METAR KCQC 310553Z AUTO 09016G22KT 10SM BKN006 OVC011 14/13 A3039
RMK AO2 PK WND 10027/0455 RAE0457 CIG 004V009 SLP191 P0000 60001
T01440128 10228 20139 53010





000
SAUS45 KABQ 310556 COR
MTRCQC
METAR KCQC 310553Z AUTO 09016G22KT 10SM BKN006 OVC011 14/13 A3039
RMK AO2 PK WND 10027/0455 RAE0457 CIG 004V009 SLP191 P0000 60001
T01440128 10228 20139 53010





000
SAUS45 KABQ 310555 COR
MTRCQC
METAR KCQC 310553Z AUTO 09016G22KT 10SM BKN006 OVC011 14/13 A3039
RMK AO2 PK WND 10027/0455 RAE0457 CIG 004V009 SLP191 P0000 60001
T01440128 10228 20139 53010





000
SAUS45 KABQ 310554
MTRTCS
METAR KTCS 310553Z AUTO 00000KT -RA OVC100 22/16 A3015 RMK AO2 RAB00
SLP120 P0000 60011 T02170161 10322 20217 53017 TSNO $





000
SAUS45 KABQ 310554
MTRCQC
METAR KCQC 310553Z AUTO 09016G22KT 10SM BKN006 OVC011 14/13 A3039
RMK AO2 PK WND 10027/0455 RAE0457 CIG 004V009 SLP191 P0000 60001
T01440128 10228 20139 53010





000
SAUS45 KABQ 310552
MTRABQ
METAR KABQ 310552Z 10016KT 10SM -RA FEW040 SCT080 BKN120 BKN200
21/15 A3024 RMK AO2 PK WND 09027/0542 LTG DSNT E-S RAB46 TSE50
SLP158 CB DSNT SE-SW MTNS OBSC NE-SE P0000 60007 T02060150 10317
20200 51026





000
SAUS45 KABQ 310523 COR
MTRCQC
SPECI KCQC 310515Z AUTO 09017G25KT 10SM BKN009 OVC012 14/13 A3038
RMK AO2 PK WND 10027/0455 RAE0457 CIG 005V010 P0000 T01440133





000
SAUS45 KABQ 310521 COR
MTRCQC
SPECI KCQC 310515Z AUTO 09017G25KT 10SM BKN009 OVC012 14/13 A3038
RMK AO2 PK WND 10027/0455 RAE0457 CIG 005V010 P0000 T01440133





000
SAUS45 KABQ 310520 COR
MTRCQC
SPECI KCQC 310515Z AUTO 09017G25KT 10SM BKN009 OVC012 14/13 A3038
RMK AO2 PK WND 10027/0455 RAE0457 CIG 005V010 P0000 T01440133





000
SAUS45 KABQ 310518 COR
MTRCQC
SPECI KCQC 310515Z AUTO 09017G25KT 10SM BKN009 OVC012 14/13 A3038
RMK AO2 PK WND 10027/0455 RAE0457 CIG 005V010 P0000 T01440133





000
SAUS45 KABQ 310517 COR
MTRCQC
SPECI KCQC 310515Z AUTO 09017G25KT 10SM BKN009 OVC012 14/13 A3038
RMK AO2 PK WND 10027/0455 RAE0457 CIG 005V010 P0000 T01440133





000
SAUS45 KABQ 310516
MTRCQC
SPECI KCQC 310515Z AUTO 09017G25KT 10SM BKN009 OVC012 14/13 A3038
RMK AO2 PK WND 10027/0455 RAE0457 CIG 005V010 P0000 T01440133





000
SAUS45 KABQ 310501 COR
MTRCQC
METAR KCQC 310453Z AUTO 10018G27KT 10SM -RA OVC010 14/13 A3036 RMK
AO2 PK WND 10027/0449 RAB11 SLP183 P0001 T01440133





000
SAUS45 KABQ 310459 COR
MTRCQC
METAR KCQC 310453Z AUTO 10018G27KT 10SM -RA OVC010 14/13 A3036 RMK
AO2 PK WND 10027/0449 RAB11 SLP183 P0001 T01440133





000
SAUS45 KABQ 310458 COR
MTRCQC
METAR KCQC 310453Z AUTO 10018G27KT 10SM -RA OVC010 14/13 A3036 RMK
AO2 PK WND 10027/0449 RAB11 SLP183 P0001 T01440133





000
SAUS45 KABQ 310456 COR
MTRCQC
METAR KCQC 310453Z AUTO 10018G27KT 10SM -RA OVC010 14/13 A3036 RMK
AO2 PK WND 10027/0449 RAB11 SLP183 P0001 T01440133





000
SAUS45 KABQ 310455 COR
MTRCQC
METAR KCQC 310453Z AUTO 10018G27KT 10SM -RA OVC010 14/13 A3036 RMK
AO2 PK WND 10027/0449 RAB11 SLP183 P0001 T01440133





000
SAUS45 KABQ 310454
MTRTCS
METAR KTCS 310453Z AUTO 24008KT FEW075 SCT090 BKN110 24/13 A3013 RMK
AO2 RAE08 SLP109 P0000 T02440128 TSNO $





000
SAUS45 KABQ 310454
MTRCQC
METAR KCQC 310453Z AUTO 10018G27KT 10SM -RA OVC010 14/13 A3036 RMK
AO2 PK WND 10027/0449 RAB11 SLP183 P0001 T01440133





000
SAUS45 KABQ 310452
MTRABQ
METAR KABQ 310452Z 11020G30KT 10SM TS FEW040 BKN080CB BKN120 BKN200
21/16 A3022 RMK AO2 PK WND 09040/0429 LTG DSNT S AND SW RAB06E49
TSB10E22B23 SLP152 CONS LTGICCCCGCA OHD-S TS OHD-S MOV SE MTNS OBSC
NE-SE P0007 T02060156





000
SAUS45 KABQ 310417
MTRABQ
SPECI KABQ 310416Z 10028G40KT 5SM -TSRA FEW040 SCT080CB BKN120
BKN200 21/16 A3020 RMK AO2 PK WND 09040/0415 LTG DSNT S AND SW RAB06
TSB10 TS OHD-W MOV SE MTNS OBSC NE-SE P0005 T02060156





000
SAUS45 KABQ 310403
MTRCQC
SPECI KCQC 310402Z AUTO 08012KT 10SM OVC014 16/14 A3039 RMK AO2
T01560139





000
SAUS45 KABQ 310403
MTRCQC
SPECI KCQC 310402Z AUTO 08012KT 10SM OVC014 16/14 A3039 RMK AO2
T01560139





000
SAUS45 KABQ 310357 COR
MTRCQC
METAR KCQC 310353Z AUTO 11014KT 10SM SCT011 OVC016 16/14 A3038 RMK
AO2 PK WND 10026/0321 RAB07E40 SLP193 P0000 T01560139





000
SAUS45 KABQ 310357 COR
MTRCQC
METAR KCQC 310353Z AUTO 11014KT 10SM SCT011 OVC016 16/14 A3038 RMK
AO2 PK WND 10026/0321 RAB07E40 SLP193 P0000 T01560139





000
SAUS45 KABQ 310356 COR
MTRCQC
METAR KCQC 310353Z AUTO 11014KT 10SM SCT011 OVC016 16/14 A3038 RMK
AO2 PK WND 10026/0321 RAB07E40 SLP193 P0000 T01560139





000
SAUS45 KABQ 310356 COR
MTRCQC
METAR KCQC 310353Z AUTO 11014KT 10SM SCT011 OVC016 16/14 A3038 RMK
AO2 PK WND 10026/0321 RAB07E40 SLP193 P0000 T01560139





000
SAUS45 KABQ 310355 COR
MTRCQC
METAR KCQC 310353Z AUTO 11014KT 10SM SCT011 OVC016 16/14 A3038 RMK
AO2 PK WND 10026/0321 RAB07E40 SLP193 P0000 T01560139





000
SAUS45 KABQ 310355 COR
MTRCQC
METAR KCQC 310353Z AUTO 11014KT 10SM SCT011 OVC016 16/14 A3038 RMK
AO2 PK WND 10026/0321 RAB07E40 SLP193 P0000 T01560139





000
SAUS45 KABQ 310354
MTRCQC
METAR KCQC 310353Z AUTO 11014KT 10SM SCT011 OVC016 16/14 A3038 RMK
AO2 PK WND 10026/0321 RAB07E40 SLP193 P0000 T01560139





000
SAUS45 KABQ 310354
MTRCQC
METAR KCQC 310353Z AUTO 11014KT 10SM SCT011 OVC016 16/14 A3038 RMK
AO2 PK WND 10026/0321 RAB07E40 SLP193 P0000 T01560139





000
SAUS45 KABQ 310354
MTRTCS
METAR KTCS 310353Z AUTO 20012KT -RA BKN110 24/15 A3012 RMK AO2 WSHFT
0303 SLP111 P0010 T02390150 TSNO $





000
SAUS45 KABQ 310354
MTRTCS
METAR KTCS 310353Z AUTO 20012KT -RA BKN110 24/15 A3012 RMK AO2 WSHFT
0303 SLP111 P0010 T02390150 TSNO $





000
SAUS45 KABQ 310353
MTRABQ
METAR KABQ 310352Z 09030G40KT 10SM FEW035 SCT100 BKN250 22/14 A3017
RMK AO2 PK WND 09040/0351 LTG DSNT E-SW SLP137 CB DSNT SE-SW MTN
TOPS OBSC NE-SE T02220144





000
SAUS45 KABQ 310353
MTRABQ
METAR KABQ 310352Z 09030G40KT 10SM FEW035 SCT100 BKN250 22/14 A3017
RMK AO2 PK WND 09040/0351 LTG DSNT E-SW SLP137 CB DSNT SE-SW MTN
TOPS OBSC NE-SE T02220144





000
SAUS45 KABQ 310344 COR
MTRCQC
SPECI KCQC 310339Z AUTO 10019G25KT 10SM -RA BKN014 BKN035 OVC110
16/14 A3036 RMK AO2 PK WND 10026/0321 RAB07 P0000 T01560139





000
SAUS45 KABQ 310344 COR
MTRCQC
SPECI KCQC 310339Z AUTO 10019G25KT 10SM -RA BKN014 BKN035 OVC110
16/14 A3036 RMK AO2 PK WND 10026/0321 RAB07 P0000 T01560139





000
SAUS45 KABQ 310342 COR
MTRCQC
SPECI KCQC 310339Z AUTO 10019G25KT 10SM -RA BKN014 BKN035 OVC110
16/14 A3036 RMK AO2 PK WND 10026/0321 RAB07 P0000 T01560139





000
SAUS45 KABQ 310342 COR
MTRCQC
SPECI KCQC 310339Z AUTO 10019G25KT 10SM -RA BKN014 BKN035 OVC110
16/14 A3036 RMK AO2 PK WND 10026/0321 RAB07 P0000 T01560139





000
SAUS45 KABQ 310341 COR
MTRCQC
SPECI KCQC 310339Z AUTO 10019G25KT 10SM -RA BKN014 BKN035 OVC110
16/14 A3036 RMK AO2 PK WND 10026/0321 RAB07 P0000 T01560139





000
SAUS45 KABQ 310341 COR
MTRCQC
SPECI KCQC 310339Z AUTO 10019G25KT 10SM -RA BKN014 BKN035 OVC110
16/14 A3036 RMK AO2 PK WND 10026/0321 RAB07 P0000 T01560139





000
SAUS45 KABQ 310340
MTRCQC
SPECI KCQC 310339Z AUTO 10019G25KT 10SM -RA BKN014 BKN035 OVC110
16/14 A3036 RMK AO2 PK WND 10026/0321 RAB07 P0000 T01560139





000
SAUS45 KABQ 310340
MTRCQC
SPECI KCQC 310339Z AUTO 10019G25KT 10SM -RA BKN014 BKN035 OVC110
16/14 A3036 RMK AO2 PK WND 10026/0321 RAB07 P0000 T01560139





000
SAUS45 KABQ 310329 COR
MTRCQC
SPECI KCQC 310324Z AUTO 10018G26KT 10SM -RA SCT014 BKN032 OVC120
16/14 A3034 RMK AO2 PK WND 10026/0321 RAB07 PRESFR P0000 T01560139





000
SAUS45 KABQ 310327 COR
MTRCQC
SPECI KCQC 310324Z AUTO 10018G26KT 10SM -RA SCT014 BKN032 OVC120
16/14 A3034 RMK AO2 PK WND 10026/0321 RAB07 PRESFR P0000 T01560139





000
SAUS45 KABQ 310326 COR
MTRCQC
SPECI KCQC 310324Z AUTO 10018G26KT 10SM -RA SCT014 BKN032 OVC120
16/14 A3034 RMK AO2 PK WND 10026/0321 RAB07 PRESFR P0000 T01560139





000
SAUS45 KABQ 310325
MTRCQC
SPECI KCQC 310324Z AUTO 10018G26KT 10SM -RA SCT014 BKN032 OVC120
16/14 A3034 RMK AO2 PK WND 10026/0321 RAB07 PRESFR P0000 T01560139





000
SAUS45 KABQ 310324
MTRTCS
SPECI KTCS 310323Z AUTO 25007G19KT -RA FEW070 SCT090 BKN110 24/16
A3011 RMK AO2 WSHFT 0303 P0010 T02440161 TSNO $





000
SAUS45 KABQ 310306 COR
MTRCQC
SPECI KCQC 310302Z AUTO 08009KT 10SM BKN012 BKN016 OVC090 16/14
A3037 RMK AO2 PRESRR T01610139





000
SAUS45 KABQ 310305 COR
MTRCQC
SPECI KCQC 310302Z AUTO 08009KT 10SM BKN012 BKN016 OVC090 16/14
A3037 RMK AO2 PRESRR T01610139





000
SAUS45 KABQ 310304 COR
MTRCQC
SPECI KCQC 310302Z AUTO 08009KT 10SM BKN012 BKN016 OVC090 16/14
A3037 RMK AO2 PRESRR T01610139





000
SAUS45 KABQ 310303
MTRCQC
SPECI KCQC 310302Z AUTO 08009KT 10SM BKN012 BKN016 OVC090 16/14
A3037 RMK AO2 PRESRR T01610139





000
SAUS45 KABQ 310258 COR
MTRCQC
METAR KCQC 310253Z AUTO 09015KT 10SM SCT012 BKN018 BKN090 16/14
A3035 RMK AO2 PK WND 10031/0212 RAB0154E25 SLP194 P0000 60000
T01610139





000
SAUS45 KABQ 310256 COR
MTRCQC
METAR KCQC 310253Z AUTO 09015KT 10SM SCT012 BKN018 BKN090 16/14
A3035 RMK AO2 PK WND 10031/0212 RAB0154E25 SLP194 P0000 60000
T01610139





000
SAUS45 KABQ 310255
MTRCQC
METAR KCQC 310253Z AUTO 09015KT 10SM SCT012 BKN018 BKN090 16/14
A3035 RMK AO2 PK WND 10031/0212 RAB0154E25 SLP194 P0000 60000
T01610139





000
SAUS45 KABQ 310254
MTRTCS
METAR KTCS 310253Z AUTO 31007KT +RA BKN100 OVC110 28/17 A3010 RMK
AO2 RAB51 SLP102 P0001 60001 T02780167 53013 TSNO $





000
SAUS45 KABQ 310253
MTRABQ
METAR KABQ 310252Z 10028G38KT 10SM FEW035 BKN100 BKN150 BKN250 22/14
A3015 RMK AO2 PK WND 08039/0217 LTG DSNT NE AND SE AND SW SLP130 CB
DSNT NE-SE MTN TOPS OBSC NE-SE T02220139 53009





000
SAUS45 KABQ 310242
MTRCQC
SPECI KCQC 310240Z AUTO 09016KT 10SM BKN015 16/14 A3034 RMK AO2 PK
WND 10031/0212 RAB0154E25 P0000 T01610139





000
SAUS45 KABQ 310217
MTRCQC
SPECI KCQC 310216Z AUTO 09021G31KT 10SM -RA BKN012 OVC024 17/14
A3031 RMK AO2 PK WND 10031/0212 RAB0154 P0000 T01670144





000
SAUS45 KABQ 310158 COR
MTRCQC
METAR KCQC 310153Z AUTO 08022G27KT 10SM 17/14 A3032 RMK AO2 PK WND
09027/0153 SLP182 T01720139 $





000
SAUS45 KABQ 310156 COR
MTRCQC
METAR KCQC 310153Z AUTO 08022G27KT 10SM 17/14 A3032 RMK AO2 PK WND
09027/0153 SLP182 T01720139 $





000
SAUS45 KABQ 310155 COR
MTRCQC
METAR KCQC 310153Z AUTO 08022G27KT 10SM 17/14 A3032 RMK AO2 PK WND
09027/0153 SLP182 T01720139 $





000
SAUS45 KABQ 310154
MTRTCS
METAR KTCS 310153Z AUTO 00000KT FEW070 SCT095 SCT110 32/13 A3006 RMK
AO2 SLP083 T03170133 TSNO $





000
SAUS45 KABQ 310154
MTRCQC
METAR KCQC 310153Z AUTO 08022G27KT 10SM 17/14 A3032 RMK AO2 PK WND
09027/0153 SLP182 T01720139 $





000
SAUS45 KABQ 310153
MTRABQ
METAR KABQ 310152Z 10017KT 10SM FEW040 SCT120 BKN150 BKN250 27/16
A3011 RMK AO2 LTG DSNT N-SE SLP112 CB DSNT E-SE MTN TOPS OBSC E
T02720161





000
SAUS45 KABQ 310057 COR
MTRCQC
METAR KCQC 310053Z AUTO 08016G23KT 10SM FEW033 SCT080 19/14 A3030
RMK AO2 PK WND 10030/0041 SLP177 T01890139





000
SAUS45 KABQ 310056 COR
MTRCQC
METAR KCQC 310053Z AUTO 08016G23KT 10SM FEW033 SCT080 19/14 A3030
RMK AO2 PK WND 10030/0041 SLP177 T01890139





000
SAUS45 KABQ 310055 COR
MTRCQC
METAR KCQC 310053Z AUTO 08016G23KT 10SM FEW033 SCT080 19/14 A3030
RMK AO2 PK WND 10030/0041 SLP177 T01890139





000
SAUS45 KABQ 310054
MTRCQC
METAR KCQC 310053Z AUTO 08016G23KT 10SM FEW033 SCT080 19/14 A3030
RMK AO2 PK WND 10030/0041 SLP177 T01890139





000
SAUS45 KABQ 310054
MTRTCS
METAR KTCS 310053Z AUTO 18004KT CLR 32/12 A3005 RMK AO2 SLP084
T03170117 TSNO $





000
SAUS45 KABQ 310053
MTRABQ
METAR KABQ 310052Z 15008KT 10SM FEW065 SCT120 BKN250 31/10 A3011 RMK
AO2 LTG DSNT N-E SLP105 CB DSNT NE T03110100





000
SAUS45 KABQ 302354
MTRTCS
METAR KTCS 302353Z AUTO 21006KT CLR 32/12 A3005 RMK AO2 SLP087 60000
T03170122 10350 20300 56012 TSNO $





000
SAUS45 KABQ 302354
MTRCQC
METAR KCQC 302353Z AUTO 10015G22KT 10SM FEW028 FEW075 SCT090 23/15
A3029 RMK AO2 SLP166 T02280150 10283 20217 53001





000
SAUS45 KABQ 302353
MTRABQ
METAR KABQ 302352Z 00000KT 10SM FEW080 SCT120 BKN250 31/09 A3011 RMK
AO2 SLP108 T03110094 10322 20261 56018





000
SAUS45 KABQ 302254
MTRTCS
METAR KTCS 302253Z AUTO 22008KT CLR 33/12 A3006 RMK AO2 SLP086
T03280117 TSNO $





000
SAUS45 KABQ 302254
MTRCQC
METAR KCQC 302253Z AUTO 10013KT 10SM FEW110 24/15 A3028 RMK AO2
SLP157 T02390150





000
SAUS45 KABQ 302253
MTRABQ
METAR KABQ 302252Z VRB03KT 10SM SCT080 SCT120 BKN250 31/11 A3013 RMK
AO2 SLP111 T03110106





000
SAUS45 KABQ 302155
MTRTCS
METAR KTCS 302153Z AUTO 04007KT CLR 35/10 A3007 RMK AO2 SLP089
T03500100 TSNO $





000
SAUS45 KABQ 302154
MTRCQC
METAR KCQC 302153Z AUTO 09013KT 10SM FEW075 SCT095 22/14 A3029 RMK
AO2 SLP168 T02170139





000
SAUS45 KABQ 302152
MTRABQ
METAR KABQ 302152Z 15003KT 10SM FEW080 FEW120 FEW250 31/11 A3015 RMK
AO2 SLP117 CB DSNT SW SHRA DSNT SW T03110111





000
SAUS45 KABQ 302054
MTRCQC
METAR KCQC 302053Z AUTO 12010KT 10SM FEW040 FEW070 SCT120 25/14
A3029 RMK AO2 SLP154 T02500144 56005





000
SAUS45 KABQ 302054
MTRTCS
METAR KTCS 302053Z AUTO 24003KT FEW050 33/10 A3009 RMK AO2 RAB28E38
SLP096 P0000 60000 T03330100 57022 TSNO $





000
SAUS45 KABQ 302052
MTRABQ
METAR KABQ 302052Z 26005KT 10SM FEW070 SCT120 BKN300 29/12 A3018 RMK
AO2 SLP130 TCU DSNT E AND SW-W-N T02940117 58014





000
SAUS45 KABQ 301954
MTRTCS
METAR KTCS 301953Z AUTO 19013KT CLR 33/11 A3012 RMK AO2 SLP108
T03330111 TSNO $





000
SAUS45 KABQ 301954
MTRCQC
METAR KCQC 301953Z AUTO 32009KT 10SM SCT120 27/09 A3030 RMK AO2
SLP153 T02670094





000
SAUS45 KABQ 301952
MTRABQ
METAR KABQ 301952Z 24006KT 10SM FEW070 FEW140 SCT300 28/13 A3019 RMK
AO2 SLP138 CB DSNT NE T02830128





000
SAUS45 KABQ 301854
MTRTCS
METAR KTCS 301853Z AUTO VRB06KT CLR 32/12 A3014 RMK AO2 SLP113
T03220122 TSNO $





000
SAUS45 KABQ 301854
MTRCQC
METAR KCQC 301853Z AUTO 31009G16KT 10SM SCT120 26/12 A3030 RMK AO2
SLP155 T02610117





000
SAUS45 KABQ 301852
MTRABQ
METAR KABQ 301852Z 24006KT 10SM FEW060 FEW140 SCT300 27/13 A3021 RMK
AO2 SLP146 CB DSNT N TCU DSNT E-SE T02720128





000
SAUS45 KABQ 301754
MTRCQC
METAR KCQC 301753Z AUTO 33009G17KT 280V350 10SM CLR 25/11 A3031 RMK
AO2 SLP158 T02500111 10250 20133 52001





000
SAUS45 KABQ 301754
MTRTCS
METAR KTCS 301753Z AUTO 12003KT CLR 30/13 A3017 RMK AO2 SLP127
T03000128 10306 20183 58006 TSNO $





000
SAUS45 KABQ 301753
MTRABQ
METAR KABQ 301752Z VRB05KT 10SM FEW060 SCT300 26/14 A3023 RMK AO2
SLP154 T02560139 10261 20189 58004





000
SAUS45 KABQ 301654
MTRCQC
METAR KCQC 301653Z AUTO 32013KT 10SM CLR 24/11 A3031 RMK AO2 SLP165
T02390111





000
SAUS45 KABQ 301654
MTRTCS
METAR KTCS 301653Z AUTO VRB03KT CLR 28/15 A3018 RMK AO2 SLP132
T02830150 TSNO $





000
SAUS45 KABQ 301653
MTRABQ
METAR KABQ 301652Z VRB03KT 10SM FEW060 FEW140 FEW300 25/14 A3023 RMK
AO2 SLP158 T02500139





000
SAUS45 KABQ 301554
MTRCQC
METAR KCQC 301553Z AUTO 30012KT 10SM CLR 22/12 A3030 RMK AO2 SLP164
T02170122





000
SAUS45 KABQ 301554
MTRTCS
METAR KTCS 301553Z AUTO 05004KT CLR 26/16 A3019 RMK AO2 SLP140
T02610156 TSNO $





000
SAUS45 KABQ 301552
MTRABQ
METAR KABQ 301552Z VRB03KT 10SM FEW140 FEW180 FEW300 23/14 A3024 RMK
AO2 SLP159 ACSL SE T02330144





000
SAUS45 KABQ 301454
MTRTCS
METAR KTCS 301453Z AUTO 04005KT FEW110 23/17 A3019 RMK AO2 SLP143
T02330167 53011 TSNO $





000
SAUS45 KABQ 301454
MTRCQC
METAR KCQC 301453Z AUTO 29010KT 10SM SCT120 17/13 A3031 RMK AO2
SLP173 T01720128 53008





000
SAUS45 KABQ 301452
MTRABQ
METAR KABQ 301452Z 00000KT 10SM FEW140 FEW300 22/15 A3024 RMK AO2
SLP163 ACC W T02170150 51011





000
SAUS45 KABQ 301354
MTRTCS
METAR KTCS 301353Z AUTO 36004KT BKN110 22/14 A3018 RMK AO2 SLP141
T02170144 TSNO $





000
SAUS45 KABQ 301354
MTRCQC
METAR KCQC 301353Z AUTO 30008KT 10SM BKN120 17/13 A3029 RMK AO2
SLP169 T01720128





000
SAUS45 KABQ 301352
MTRABQ
METAR KABQ 301352Z 10003KT 10SM SCT150 SCT250 21/15 A3023 RMK AO2
SLP160 T02060150





000
SAUS45 KABQ 301254
MTRTCS
METAR KTCS 301253Z AUTO 00000KT FEW100 21/13 A3016 RMK AO2 SLP136
T02060133 TSNO $





000
SAUS45 KABQ 301254
MTRCQC
METAR KCQC 301253Z AUTO 31008KT 10SM FEW110 14/12 A3028 RMK AO2
SLP171 T01440122





000
SAUS45 KABQ 301252
MTRABQ
METAR KABQ 301252Z 36003KT 10SM FEW150 SCT250 19/15 A3022 RMK AO2
SLP155 T01940150





000
SAUS45 KABQ 301154
MTRTCS
METAR KTCS 301153Z AUTO 01003KT CLR 19/17 A3015 RMK AO2 SLP136 70082
T01890167 10211 20189 53004 TSNO $





000
SAUS45 KABQ 301154
MTRCQC
METAR KCQC 301153Z AUTO 29008KT 10SM CLR 13/12 A3028 RMK AO2 SLP168
70001 T01330122 10183 20133 51003





000
SAUS45 KABQ 301152
MTRABQ
METAR KABQ 301152Z 26005KT 10SM FEW070 SCT200 19/16 A3020 RMK AO2
SLP151 60000 70104 T01890156 10211 20183 55003





000
SAUS45 KABQ 301054
MTRCQC
METAR KCQC 301053Z AUTO 32008KT 10SM CLR 14/12 A3027 RMK AO2 SLP161
T01440122





000
SAUS45 KABQ 301054
MTRTCS
METAR KTCS 301053Z AUTO 25008KT CLR 19/16 A3014 RMK AO2 SLP131
T01940161 TSNO $





000
SAUS45 KABQ 301052
MTRABQ
METAR KABQ 301052Z 06003KT 10SM FEW070 SCT200 19/15 A3019 RMK AO2
SLP159 T01940150





000
SAUS45 KABQ 300954
MTRTCS
METAR KTCS 300953Z AUTO 27006KT CLR 19/18 A3014 RMK AO2 SLP131
T01940178 TSNO $





000
SAUS45 KABQ 300954
MTRCQC
METAR KCQC 300953Z AUTO 30012KT 10SM CLR 14/12 A3028 RMK AO2 SLP162
T01390117





000
SAUS45 KABQ 300952
MTRABQ
METAR KABQ 300952Z 35007KT 10SM FEW080 SCT200 20/15 A3020 RMK AO2
SLP141 T02000150





000
SAUS45 KABQ 300854
MTRCQC
METAR KCQC 300853Z AUTO 30011KT 10SM CLR 16/10 A3027 RMK AO2 SLP153
T01560100 55017





000
SAUS45 KABQ 300854
MTRTCS
METAR KTCS 300853Z AUTO 00000KT CLR 20/17 A3014 RMK AO2 SLP136
T02000172 56014 TSNO $





000
SAUS45 KABQ 300852
MTRABQ
METAR KABQ 300852Z 04010KT 10SM FEW080 SCT140 BKN200 20/16 A3021 RMK
AO2 SLP144 60000 T02000161 55004





000
SAUS45 KABQ 300754
MTRCQC
METAR KCQC 300753Z AUTO 28010KT 10SM CLR 17/10 A3026 RMK AO2 SLP156
T01670100





000
SAUS45 KABQ 300754
MTRTCS
METAR KTCS 300753Z AUTO 32005KT CLR 19/18 A3015 RMK AO2 SLP122
T01890178 TSNO $





000
SAUS45 KABQ 300752
MTRABQ
METAR KABQ 300752Z 32006KT 10SM FEW060 BKN110 21/16 A3021 RMK AO2
RAB17E51 SLP144 P0000 T02060156





000
SAUS45 KABQ 300658 COR
MTRCQC
METAR KCQC 300653Z AUTO 34020G27KT 10SM FEW120 16/13 A3030 RMK AO2
PK WND 33031/0635 SLP166 T01610128 402330144





000
SAUS45 KABQ 300656 COR
MTRCQC
METAR KCQC 300653Z AUTO 34020G27KT 10SM FEW120 16/13 A3030 RMK AO2
PK WND 33031/0635 SLP166 T01610128 402330144





000
SAUS45 KABQ 300655 COR
MTRCQC
METAR KCQC 300653Z AUTO 34020G27KT 10SM FEW120 16/13 A3030 RMK AO2
PK WND 33031/0635 SLP166 T01610128 402330144





000
SAUS45 KABQ 300654
MTRCQC
METAR KCQC 300653Z AUTO 34020G27KT 10SM FEW120 16/13 A3030 RMK AO2
PK WND 33031/0635 SLP166 T01610128 402330144





000
SAUS45 KABQ 300654
MTRTCS
METAR KTCS 300653Z AUTO 00000KT SCT100 21/17 A3017 RMK AO2 SLP127
T02060172 403110172 TSNO $





000
SAUS45 KABQ 300653
MTRABQ
METAR KABQ 300652Z 14007KT 10SM FEW065 BKN095 BKN110 21/16 A3021 RMK
AO2 RAB33E47 SLP148 P0000 T02060161 403000183





000
SAUS45 KABQ 300558 COR
MTRCQC
METAR KCQC 300553Z AUTO 29015KT 10SM CLR 17/13 A3033 RMK AO2 SLP175
T01670133 10194 20161 53004





000
SAUS45 KABQ 300556 COR
MTRCQC
METAR KCQC 300553Z AUTO 29015KT 10SM CLR 17/13 A3033 RMK AO2 SLP175
T01670133 10194 20161 53004





000
SAUS45 KABQ 300555 COR
MTRCQC
METAR KCQC 300553Z AUTO 29015KT 10SM CLR 17/13 A3033 RMK AO2 SLP175
T01670133 10194 20161 53004





000
SAUS45 KABQ 300554
MTRTCS
METAR KTCS 300553Z AUTO 32004KT CLR 21/18 A3018 RMK AO2 SLPNO
T02060178 10239 20206 51009 TSNO $





000
SAUS45 KABQ 300553
MTRABQ
METAR KABQ 300552Z 14007KT 10SM SCT070 SCT110 BKN200 21/15 A3022 RMK
AO2 WSHFT 0509 LTG DSNT NE-SE RAE14 TSE16 SLP158 CB DSNT E P0000
60027 T02060150 10244 20194 50008





000
SAUS45 KABQ 300526
MTRABQ
SPECI KABQ 300525Z 15011KT 10SM SCT070 BKN110 BKN200 21/16 A3022 RMK
AO2 WSHFT 0509 LTG DSNT NE-SE RAE14 TSE16 CB DSNT SE P0000 T02060156





000
SAUS45 KABQ 300517
MTRABQ
SPECI KABQ 300516Z 19011KT 160V230 10SM VCTS SCT070CB BKN110 BKN200
20/16 A3023 RMK AO2 LTG DSNT E-S RAE14 TSE16 TS SE MOV SE P0000
T02000156





000
SAUS45 KABQ 300454
MTRTCS
METAR KTCS 300453Z AUTO 22004KT CLR 22/17 A3018 RMK AO2 SLP133
T02170167 TSNO $





000
SAUS45 KABQ 300454
MTRCQC
METAR KCQC 300453Z AUTO 25007KT 10SM CLR 16/13 A3031 RMK AO2 SLP175
T01610128





000
SAUS45 KABQ 300453
MTRABQ
METAR KABQ 300452Z 13013KT 10SM -TSRA BKN070CB BKN110 OVC200 20/16
A3024 RMK AO2 WSHFT 0355 LTG DSNT N AND S AND SW RAB19 TSB29 SLP164
TS OHD-S MOV SE P0014 T02000161





000
SAUS45 KABQ 300436
MTRABQ
SPECI KABQ 300435Z 05006KT 3SM +TSRA BKN070CB BKN110 OVC200 20/16
A3025 RMK AO2 WSHFT 0355 LTG DSNT S AND SW RAB19 TSB29 TS SW-OHD-N
MOV E P0013 T02000161





000
SAUS45 KABQ 300416
MTRABQ
SPECI KABQ 300415Z 30014KT 10SM VCTS SCT070CB BKN110 BKN200 21/16
A3027 RMK AO2 WSHFT 0355 LTG DSNT ALQDS TS W-NW MOV E T02110161





000
SAUS45 KABQ 300403
MTRABQ
SPECI KABQ 300402Z 29018KT 10SM VCTS SCT070CB BKN120 BKN200 21/17
A3026 RMK AO2 LTG DSNT SW-N PRESRR TS W MOV E T02110167





000
SAUS45 KABQ 300354
MTRCQC
METAR KCQC 300353Z AUTO 30006KT 10SM CLR 17/14 A3031 RMK AO2 SLP178
T01670144





000
SAUS45 KABQ 300354
MTRTCS
METAR KTCS 300353Z AUTO 14004KT CLR 21/17 A3018 RMK AO2 SLP140
T02110167 TSNO $





000
SAUS45 KABQ 300353
MTRABQ
METAR KABQ 300352Z 26003KT 10SM SCT070 SCT120 BKN200 22/16 A3023 RMK
AO2 LTG DSNT W-N PRESRR SLP162 CB DSNT W T02170161





000
SAUS45 KABQ 300254
MTRCQC
METAR KCQC 300253Z AUTO 24008KT 10SM FEW080 SCT100 18/14 A3031 RMK
AO2 SLP178 T01780139 53006





000
SAUS45 KABQ 300254
MTRTCS
METAR KTCS 300253Z AUTO 00000KT CLR 22/17 A3015 RMK AO2 SLP129
T02220172 55004 TSNO $





000
SAUS45 KABQ 300253
MTRABQ
METAR KABQ 300252Z 14006KT 10SM FEW070 SCT120 BKN200 22/18 A3020 RMK
AO2 RAE01 SLP150 CB DSNT SE AND W P0000 60013 T02220178 53009





000
SAUS45 KABQ 300211
MTRABQ
SPECI KABQ 300210Z 18007KT 10SM SCT070 BKN120 BKN200 23/17 A3018 RMK
AO2 LTG DSNT SE RAE01 CB DSNT E P0000 T02330172





000
SAUS45 KABQ 300154
MTRTCS
METAR KTCS 300153Z AUTO 15004KT CLR 23/18 A3014 RMK AO2 SLP128
T02280183 TSNO $





000
SAUS45 KABQ 300154
MTRCQC
METAR KCQC 300153Z AUTO 31003KT 10SM CLR 18/15 A3028 RMK AO2 SLP169
T01780150





000
SAUS45 KABQ 300153
MTRABQ
METAR KABQ 300152Z 19012KT 7SM VCTS +RA BKN065CB BKN130 BKN200 23/18
A3017 RMK AO2 RAB41 TSB50E51 SLP140 TS E MOV E P0013 T02280178





000
SAUS45 KABQ 300151
MTRABQ
SPECI KABQ 300150Z 17013KT 7SM +TSRA BKN065CB BKN130 BKN200 23/18
A3017 RMK AO2 RAB41 TSB50 TS OHD-S MOV E P0011





000
SAUS45 KABQ 300110
MTRABQ
SPECI KABQ 300109Z 15006KT 10SM VCTS SCT060CB BKN130 BKN200 24/17
A3017 RMK AO2 LTG DSNT S-W TS SW-W MOV E VCSH W SHRA DSNT S
T02440172





000
SAUS45 KABQ 300054
MTRCQC
METAR KCQC 300053Z AUTO 29008KT 10SM FEW070 SCT120 18/15 A3028 RMK
AO2 SLP171 T01780150





000
SAUS45 KABQ 300054
MTRTCS
METAR KTCS 300053Z AUTO 18005KT CLR 23/17 A3015 RMK AO2 SLP133
T02330167 TSNO $





000
SAUS45 KABQ 300053
MTRABQ
METAR KABQ 300052Z 09008KT 10SM SCT060 BKN130 BKN200 24/17 A3015 RMK
AO2 LTG DSNT S-W SLP133 CB DSNT SE-SW-W SHRA DSNT SE-S T02440167





000
SAUS45 KABQ 300001 COR
MTRCQC
METAR KCQC 292353Z AUTO 27009KT 10SM CLR 19/16 A3029 RMK AO2
RAB17E41 SLP170 P0000 60000 T01940156 10233 20178 56012





000
SAUS45 KABQ 292359 COR
MTRCQC
METAR KCQC 292353Z AUTO 27009KT 10SM CLR 19/16 A3029 RMK AO2
RAB17E41 SLP170 P0000 60000 T01940156 10233 20178 56012





000
SAUS45 KABQ 292358 COR
MTRCQC
METAR KCQC 292353Z AUTO 27009KT 10SM CLR 19/16 A3029 RMK AO2
RAB17E41 SLP170 P0000 60000 T01940156 10233 20178 56012





000
SAUS45 KABQ 292356 COR
MTRCQC
METAR KCQC 292353Z AUTO 27009KT 10SM CLR 19/16 A3029 RMK AO2
RAB17E41 SLP170 P0000 60000 T01940156 10233 20178 56012





000
SAUS45 KABQ 292355 COR
MTRCQC
METAR KCQC 292353Z AUTO 27009KT 10SM CLR 19/16 A3029 RMK AO2
RAB17E41 SLP170 P0000 60000 T01940156 10233 20178 56012





000
SAUS45 KABQ 292354
MTRTCS
METAR KTCS 292353Z AUTO VRB03KT CLR 23/17 A3017 RMK AO2 SLP138 60082
T02330167 10311 20172 58010 TSNO $





000
SAUS45 KABQ 292354
MTRCQC
METAR KCQC 292353Z AUTO 27009KT 10SM CLR 19/16 A3029 RMK AO2
RAB17E41 SLP170 P0000 60000 T01940156 10233 20178 56012





000
SAUS45 KABQ 292352
MTRABQ
METAR KABQ 292352Z 08009KT 10SM SCT060 BKN120 BKN200 24/17 A3017 RMK
AO2 LTG DSNT E-SW RAE13 TSE13 SLP139 CB DSNT S AND W SHRA DSNT S AND
W P0019 60077 T02390167 10300 20183 58013





000
SAUS45 KABQ 292330
MTRABQ
SPECI KABQ 292330Z 09008KT 10SM SCT060 BKN130 BKN200 22/17 A3018 RMK
AO2 LTG DSNT E-SW RAE13 TSE13 CB DSNT E SHRA DSNT E P0019 T02220172





000
SAUS45 KABQ 292319
MTRABQ
SPECI KABQ 292319Z 10008KT 10SM VCTS FEW035 SCT060CB BKN120 BKN200
21/18 A3018 RMK AO2 LTG DSNT E-SW RAE13 TSE13 TS E MOV E VCSH E MTN
TOPS OBSC NE-E P0019 T02110178





000
SAUS45 KABQ 292255
MTRABQ
METAR KABQ 292252Z COR VRB03KT 4SM +TSRA BR FEW040 BKN060CB BKN140
BKN200 18/17 A3022 RMK AO2 LTG DSNT E RAB26 TSB09 SLP165 VIS E AND S
2 TS OHD-E MOV E MTNS OBSC E P0058 T01830167





000
SAUS45 KABQ 292254
MTRCQC
METAR KCQC 292253Z AUTO 21010KT 10SM FEW031 SCT041 BKN090 21/14
A3030 RMK AO2 SLP168 T02110144





000
SAUS45 KABQ 292254
MTRTCS
METAR KTCS 292253Z AUTO 12004KT CLR 23/17 A3018 RMK AO2 RAE2159
SLP145 P0000 T02280172 TSNO $





000
SAUS45 KABQ 292252
MTRABQ
METAR KABQ 292252Z VRB03KT 4SM +TSRA BR FEW040 BKN060CB BKN140
BKN200 18/17 A3022 RMK AO2 LTG DSNT E RAB26 TSB09 SLP165 TS OHD-E
MOV E MTNS OBSC E P0058 T01830167





000
SAUS45 KABQ 292244
MTRABQ
SPECI KABQ 292244Z 31011G24KT 2SM +TSRA SCT035 BKN060CB BKN120 20/16
A3023 RMK AO2 LTG DSNT E RAB26 TSB09 TS OHD MOV SE P0049 T02000161





000
SAUS45 KABQ 292238
MTRABQ
SPECI KABQ 292238Z 36018G24KT 1/2SM +TSRA FEW025 BKN060CB OVC140
20/16 A3022 RMK AO2 LTG DSNT NE AND E AND SW RAB26 TSB09 TS OHD MOV
SE P0031 T02000161





000
SAUS45 KABQ 292211
MTRABQ
SPECI KABQ 292209Z COR 17004KT 10SM TS BKN065CB BKN140 BKN250 28/12
A3017 RMK AO2 LTG DSNT NE AND E AND W TSB09 TS OHD-W MOV SE SHRA
DSNT NW T02830122





000
SAUS45 KABQ 292210
MTRABQ
SPECI KABQ 292209Z 17004KT 10SM TS BKN065TCU BKN140 BKN250 28/12
A3017 RMK AO2 LTG DSNT NE AND E AND W TSB09 TCU OHD-W SHRA DSNT N
AND W T02830122





000
SAUS45 KABQ 292154
MTRCQC
METAR KCQC 292153Z AUTO 22006KT 10SM BKN035 BKN046 22/15 A3031 RMK
AO2 SLP166 T02220150





000
SAUS45 KABQ 292154
MTRTCS
METAR KTCS 292153Z AUTO 18006KT -RA FEW038 BKN110 22/17 A3019 RMK
AO2 RAE07B24 SLP148 P0000 T02220167 TSNO $





000
SAUS45 KABQ 292153
MTRABQ
METAR KABQ 292152Z 24008KT 10SM BKN065TCU BKN140 BKN250 29/12 A3018
RMK AO2 SLP134 LTG DSNT N AND E AND W TCU OHD-W SHRA DSNT N AND W
T02890122





000
SAUS45 KABQ 292055 COR
MTRTCS
METAR KTCS 292053Z AUTO 05004KT -RA SCT017 BKN110 20/16 A3020 RMK
AO2 PK WND 30046/2022 WSHFT 2015 RAB23 SLP156 P0082 60082 T02000161
55006 TSNO $





000
SAUS45 KABQ 292054
MTRCQC
METAR KCQC 292053Z AUTO 24012KT 10SM CLR 22/16 A3034 RMK AO2 SLP178
60000 T02220161 56013





000
SAUS45 KABQ 292054
MTRTCS
METAR KTCS 292053Z AUTO 05004KT -RA SCT017 BKN110 20/16 A3020 RMK
AO2 PK WND 30046/2022 WSHFT 2015 RAB23 SLP156 P0082 60082 T02000161
55006 TSNO $





000
SAUS45 KABQ 292052
MTRTCS
SPECI KTCS 292050Z AUTO 05004KT -RA SCT017 SCT060 BKN110 20/16 A3020
RMK AO2 PK WND 30046/2022 WSHFT 2015 RAB23 P0082 TSNO $





000
SAUS45 KABQ 292052
MTRABQ
METAR KABQ 292052Z VRB03KT 10SM SCT055 SCT280 29/13 A3021 RMK AO2
SLP145 LTG DSNT NW-N T02890128 58024





000
SAUS45 KABQ 292043
MTRTCS
SPECI KTCS 292042Z AUTO 07011KT +RA BKN019 BKN060 OVC110 19/15 A3020
RMK AO2 PK WND 30046/2022 WSHFT 2015 RAB23 PRESFR P0078 T01940150
TSNO $





000
SAUS45 KABQ 292030
MTRTCS
SPECI KTCS 292029Z AUTO 26025G46KT +RA FEW009 BKN065 OVC080 19/16
A3028 RMK AO2 PK WND 30046/2022 WSHFT 2015 RAB23 PRESRR P0011
T01890161 TSNO $





000
SAUS45 KABQ 291954
MTRCQC
METAR KCQC 291953Z AUTO 26008KT 10SM FEW032 FEW046 SCT075 19/14
A3035 RMK AO2 PK WND 25026/1908 RAB29E51 SLP191 P0000 T01890144





000
SAUS45 KABQ 291954
MTRTCS
METAR KTCS 291953Z AUTO VRB04KT FEW080 31/12 A3020 RMK AO2 SLP135
T03060122 TSNO $





000
SAUS45 KABQ 291952
MTRABQ
METAR KABQ 291952Z 22007KT 10SM FEW050 SCT280 27/13 A3025 RMK AO2
SLP160 T02670128





000
SAUS45 KABQ 291854
MTRCQC
METAR KCQC 291853Z AUTO 24011KT 10SM FEW020 SCT042 OVC075 22/15
A3036 RMK AO2 SLP190 T02170150





000
SAUS45 KABQ 291854
MTRTCS
METAR KTCS 291853Z AUTO VRB06KT CLR 31/14 A3022 RMK AO2 SLP140
T03060139 TSNO $





000
SAUS45 KABQ 291852
MTRABQ
METAR KABQ 291852Z 19007KT 10SM SCT040 SCT250 26/14 A3027 RMK AO2
SLP167 MTN TOPS OBSC NE T02610144





000
SAUS45 KABQ 291754
MTRTCS
METAR KTCS 291753Z AUTO VRB03KT FEW047 A3024 RMK AO2 SLPNO 10272
20194 58010 TSNO $





000
SAUS45 KABQ 291754
MTRCQC
METAR KCQC 291753Z AUTO 19009KT 10SM CLR 21/15 A3038 RMK AO2 RAE01
SLP200 P0000 60001 T02060150 10206 20144 58008





000
SAUS45 KABQ 291752
MTRABQ
METAR KABQ 291752Z 17006KT 10SM SCT030 SCT140 24/16 A3030 RMK AO2
LTG DSNT E SLP178 MTNS OBSC NE-SE T02390156 10244 20189 58012





000
SAUS45 KABQ 291735 COR
MTRCQC
SPECI KCQC 291731Z AUTO 22008KT 10SM FEW015 SCT026 19/14 A3039 RMK
AO2 RAE01 P0000 T01940144





000
SAUS45 KABQ 291734 COR
MTRCQC
SPECI KCQC 291731Z AUTO 22008KT 10SM FEW015 SCT026 19/14 A3039 RMK
AO2 RAE01 P0000 T01940144





000
SAUS45 KABQ 291733 COR
MTRCQC
SPECI KCQC 291731Z AUTO 22008KT 10SM FEW015 SCT026 19/14 A3039 RMK
AO2 RAE01 P0000 T01940144





000
SAUS45 KABQ 291732
MTRCQC
SPECI KCQC 291731Z AUTO 22008KT 10SM FEW015 SCT026 19/14 A3039 RMK
AO2 RAE01 P0000 T01940144





000
SAUS45 KABQ 291655
MTRCQC
METAR KCQC 291653Z AUTO 23009KT 10SM -RA SCT013 BKN026 OVC035 18/14
A3041 RMK AO2 RAB49 SLP214 P0000 T01830144





000
SAUS45 KABQ 291654
MTRTCS
METAR KTCS 291653Z AUTO 18010KT CLR 27/11 A3026 RMK AO2 SLP161
T02670111 TSNO $





000
SAUS45 KABQ 291652
MTRABQ
METAR KABQ 291652Z 18005KT 10SM FEW029 BKN130 23/16 A3032 RMK AO2
SLP189 TCU DSNT NE-E MTNS OBSC NE-SE T02280156





000
SAUS45 KABQ 291645
MTRCQC
SPECI KCQC 291643Z AUTO 22011KT 10SM SCT013 BKN018 OVC045 19/15
A3041 RMK AO2 T01890150





000
SAUS45 KABQ 291617
MTRCQC
SPECI KCQC 291616Z AUTO 22011KT 10SM BKN013 BKN021 OVC027 18/14
A3041 RMK AO2 T01780144





000
SAUS45 KABQ 291558 COR
MTRCQC
METAR KCQC 291553Z AUTO 22008KT 10SM FEW011 BKN018 OVC024 17/14
A3041 RMK AO2 SLP218 T01720144





000
SAUS45 KABQ 291556 COR
MTRCQC
METAR KCQC 291553Z AUTO 22008KT 10SM FEW011 BKN018 OVC024 17/14
A3041 RMK AO2 SLP218 T01720144





000
SAUS45 KABQ 291555 COR
MTRCQC
METAR KCQC 291553Z AUTO 22008KT 10SM FEW011 BKN018 OVC024 17/14
A3041 RMK AO2 SLP218 T01720144





000
SAUS45 KABQ 291554
MTRCQC
METAR KCQC 291553Z AUTO 22008KT 10SM FEW011 BKN018 OVC024 17/14
A3041 RMK AO2 SLP218 T01720144





000
SAUS45 KABQ 291554
MTRTCS
METAR KTCS 291553Z AUTO 00000KT CLR 25/M02 A3027 RMK AO2 SLP165
T02501022 TSNO $





000
SAUS45 KABQ 291553
MTRABQ
METAR KABQ 291552Z 24003KT 10SM SCT020 BKN033 21/16 A3033 RMK AO2
SLP197 MTNS OBSC NE-SE T02110156





000
SAUS45 KABQ 291552
MTRCQC
SPECI KCQC 291551Z AUTO 21007KT 10SM FEW011 BKN018 OVC024 17/14
A3041 RMK AO2





000
SAUS45 KABQ 291508
MTRCQC
SPECI KCQC 291507Z AUTO 21010KT 10SM BKN011 OVC015 17/14 A3042 RMK
AO2 CIG 009V014 T01670139





000
SAUS45 KABQ 291459
MTRABQ
SPECI KABQ 291458Z 20004KT 10SM BKN018 BKN036 21/16 A3034 RMK AO2
MTNS OBSC NE-SE T02060161





000
SAUS45 KABQ 291458 COR
MTRCQC
METAR KCQC 291453Z AUTO 20007KT 10SM OVC009 17/14 A3042 RMK AO2 CIG
008V014 SLP220 60001 T01670144 53006





000
SAUS45 KABQ 291456 COR
MTRCQC
METAR KCQC 291453Z AUTO 20007KT 10SM OVC009 17/14 A3042 RMK AO2 CIG
008V014 SLP220 60001 T01670144 53006





000
SAUS45 KABQ 291455 COR
MTRCQC
METAR KCQC 291453Z AUTO 20007KT 10SM OVC009 17/14 A3042 RMK AO2 CIG
008V014 SLP220 60001 T01670144 53006





000
SAUS45 KABQ 291454
MTRCQC
METAR KCQC 291453Z AUTO 20007KT 10SM OVC009 17/14 A3042 RMK AO2 CIG
008V014 SLP220 60001 T01670144 53006





000
SAUS45 KABQ 291454
MTRTCS
METAR KTCS 291453Z AUTO 00000KT CLR 24/ A3028 RMK AO2 SLP169 T0239
51006 TSNO $





000
SAUS45 KABQ 291453
MTRABQ
METAR KABQ 291452Z 20003KT 10SM SCT018 BKN036 21/16 A3034 RMK AO2
SLP200 MTNS OBSC NE-SE T02060161 51008





000
SAUS45 KABQ 291418
MTRCQC
SPECI KCQC 291417Z AUTO 20007KT 10SM BKN009 OVC065 16/14 A3041 RMK
AO2 CIG 007V012 T01610144





000
SAUS45 KABQ 291406
MTRCQC
SPECI KCQC 291405Z AUTO 18004KT 10SM SCT007 BKN060 OVC100 16/14
A3041 RMK AO2 T01610144





000
SAUS45 KABQ 291354
MTRTCS
METAR KTCS 291353Z AUTO 02008KT SCT080 22/16 A3028 RMK AO2 SLP168
T02170156 TSNO $





000
SAUS45 KABQ 291354
MTRCQC
METAR KCQC 291353Z AUTO 19003KT 10SM OVC060 16/14 A3041 RMK AO2
SLP208 T01560144





000
SAUS45 KABQ 291353
MTRABQ
METAR KABQ 291352Z 00000KT 10SM FEW016 SCT120 SCT250 20/16 A3033 RMK
AO2 SLP196 MTNS OBSC NE-SE T02000161





000
SAUS45 KABQ 291254
MTRCQC
METAR KCQC 291253Z AUTO 19007KT 10SM BKN100 OVC120 14/13 A3040 RMK
AO2 RAE18B34E45 SLP200 P0001 T01440133





000
SAUS45 KABQ 291254
MTRTCS
METAR KTCS 291253Z AUTO 01005KT CLR 19/16 A3026 RMK AO2 SLP168
T01940161 TSNO $





000
SAUS45 KABQ 291253
MTRABQ
METAR KABQ 291252Z 00000KT 10SM FEW016 SCT070 SCT250 19/16 A3032 RMK
AO2 SLP184 MTNS OBSC NE AND SE T01940161





000
SAUS45 KABQ 291158 COR
MTRCQC
METAR KCQC 291153Z AUTO 19009KT 10SM -RA OVC090 14/13 A3040 RMK AO2
RAB1057 SLP197 P0001 60023 70118 T01440133 10161 20144 55003 $





000
SAUS45 KABQ 291156 COR
MTRCQC
METAR KCQC 291153Z AUTO 19009KT 10SM -RA OVC090 14/13 A3040 RMK AO2
RAB1057 SLP197 P0001 60023 70118 T01440133 10161 20144 55003 $





000
SAUS45 KABQ 291155 COR
MTRCQC
METAR KCQC 291153Z AUTO 19009KT 10SM -RA OVC090 14/13 A3040 RMK AO2
RAB1057 SLP197 P0001 60023 70118 T01440133 10161 20144 55003 $





000
SAUS45 KABQ 291154
MTRCQC
METAR KCQC 291153Z AUTO 19009KT 10SM -RA OVC090 14/13 A3040 RMK AO2
RAB1057 SLP197 P0001 60023 70118 T01440133 10161 20144 55003 $





000
SAUS45 KABQ 291154
MTRTCS
METAR KTCS 291153Z AUTO 36005KT OVC070 21/16 A3026 RMK AO2 SLP160
70001 T02060161 10233 20200 53005 TSNO $





000
SAUS45 KABQ 291153
MTRABQ
METAR KABQ 291152Z 00000KT 10SM FEW055 SCT070 19/16 A3031 RMK AO2
SLP177 60002 70002 T01940161 10222 20194 55001





000
SAUS45 KABQ 291054
MTRCQC
METAR KCQC 291053Z AUTO 21006KT 10SM FEW048 BKN075 OVC085 15/14
A3039 RMK AO2 SLP199 T01500139 $





000
SAUS45 KABQ 291054
MTRTCS
METAR KTCS 291053Z AUTO 11003KT BKN070 20/16 A3025 RMK AO2 SLP154
T02000156 TSNO $





000
SAUS45 KABQ 291053
MTRABQ
METAR KABQ 291052Z 00000KT 10SM FEW055 SCT075 OVC110 20/16 A3030 RMK
AO2 SLP174 T02000156





000
SAUS45 KABQ 291019
MTRCQC
SPECI KCQC 291018Z AUTO 23006KT 10SM FEW006 OVC075 16/14 A3040 RMK
AO2 T01560144 $





000
SAUS45 KABQ 290955
MTRCQC
METAR KCQC 290953Z AUTO 00000KT 10SM BKN006 OVC065 16/14 A3040 RMK
AO2 RAE0854 CIG 005V009 SLP196 P0000 T01610144 $





000
SAUS45 KABQ 290954
MTRTCS
METAR KTCS 290953Z AUTO 11005KT CLR 21/16 A3024 RMK AO2 SLP152
T02060161 TSNO $





000
SAUS45 KABQ 290953
MTRABQ
METAR KABQ 290952Z 03009KT 10SM FEW055 SCT085 BKN110 20/16 A3030 RMK
AO2 RAE36 SLP173 P0001 T02000161





000
SAUS45 KABQ 290919 COR
MTRCQC
SPECI KCQC 290914Z AUTO 01004KT 10SM BKN007 BKN095 OVC110 16/14
A3040 RMK AO2 RAE0854 CIG 006V010 P0000 T01560144 $





000
SAUS45 KABQ 290917 COR
MTRCQC
SPECI KCQC 290914Z AUTO 01004KT 10SM BKN007 BKN095 OVC110 16/14
A3040 RMK AO2 RAE0854 CIG 006V010 P0000 T01560144 $





000
SAUS45 KABQ 290916
MTRCQC
SPECI KCQC 290914Z AUTO 01004KT 10SM BKN007 BKN095 OVC110 16/14
A3040 RMK AO2 RAE0854 CIG 006V010 P0000 T01560144 $





000
SAUS45 KABQ 290910 COR
MTRCQC
SPECI KCQC 290905Z AUTO 00000KT 10SM SCT008 BKN020 OVC110 16/14
A3040 RMK AO2 RAE0854 CIG 016V025 P0000 T01560144 $





000
SAUS45 KABQ 290908 COR
MTRCQC
SPECI KCQC 290905Z AUTO 00000KT 10SM SCT008 BKN020 OVC110 16/14
A3040 RMK AO2 RAE0854 CIG 016V025 P0000 T01560144 $





000
SAUS45 KABQ 290907 COR
MTRCQC
SPECI KCQC 290905Z AUTO 00000KT 10SM SCT008 BKN020 OVC110 16/14
A3040 RMK AO2 RAE0854 CIG 016V025 P0000 T01560144 $





000
SAUS45 KABQ 290906
MTRCQC
SPECI KCQC 290905Z AUTO 00000KT 10SM SCT008 BKN020 OVC110 16/14
A3040 RMK AO2 RAE0854 CIG 016V025 P0000 T01560144 $





000
SAUS45 KABQ 290858 COR
MTRCQC
METAR KCQC 290853Z AUTO 00000KT 10SM -RA FEW011 SCT085 OVC110 16/14
A3041 RMK AO2 SLP196 P0009 60022 T01560144 58011 $





000
SAUS45 KABQ 290856 COR
MTRCQC
METAR KCQC 290853Z AUTO 00000KT 10SM -RA FEW011 SCT085 OVC110 16/14
A3041 RMK AO2 SLP196 P0009 60022 T01560144 58011 $





000
SAUS45 KABQ 290855
MTRCQC
METAR KCQC 290853Z AUTO 00000KT 10SM -RA FEW011 SCT085 OVC110 16/14
A3041 RMK AO2 SLP196 P0009 60022 T01560144 58011 $





000
SAUS45 KABQ 290854
MTRTCS
METAR KTCS 290853Z AUTO 12004KT FEW110 21/15 A3024 RMK AO2 SLP152
T02110150 58006 TSNO $





000
SAUS45 KABQ 290853
MTRABQ
METAR KABQ 290852Z 10008KT 10SM -RA SCT060 BKN090 BKN130 19/15 A3031
RMK AO2 RAE0753B32 SLP179 P0000 60001 T01940150 58004





000
SAUS45 KABQ 290835 COR
MTRCQC
SPECI KCQC 290830Z AUTO 00000KT 5SM RA BR FEW008 BKN060 OVC080 15/14
A3041 RMK AO2 P0008 T01500144 $





000
SAUS45 KABQ 290833 COR
MTRCQC
SPECI KCQC 290830Z AUTO 00000KT 5SM RA BR FEW008 BKN060 OVC080 15/14
A3041 RMK AO2 P0008 T01500144 $





000
SAUS45 KABQ 290832 COR
MTRCQC
SPECI KCQC 290830Z AUTO 00000KT 5SM RA BR FEW008 BKN060 OVC080 15/14
A3041 RMK AO2 P0008 T01500144 $





000
SAUS45 KABQ 290831
MTRCQC
SPECI KCQC 290830Z AUTO 00000KT 5SM RA BR FEW008 BKN060 OVC080 15/14
A3041 RMK AO2 P0008 T01500144 $





000
SAUS45 KABQ 290758 COR
MTRCQC
METAR KCQC 290753Z AUTO 00000KT 4SM RA BR SCT010 SCT015 OVC065 15/14
A3042 RMK AO2 RAB0657 SLP206 P0013 T01500139 $





000
SAUS45 KABQ 290756 COR
MTRCQC
METAR KCQC 290753Z AUTO 00000KT 4SM RA BR SCT010 SCT015 OVC065 15/14
A3042 RMK AO2 RAB0657 SLP206 P0013 T01500139 $





000
SAUS45 KABQ 290755 COR
MTRCQC
METAR KCQC 290753Z AUTO 00000KT 4SM RA BR SCT010 SCT015 OVC065 15/14
A3042 RMK AO2 RAB0657 SLP206 P0013 T01500139 $





000
SAUS45 KABQ 290754
MTRCQC
METAR KCQC 290753Z AUTO 00000KT 4SM RA BR SCT010 SCT015 OVC065 15/14
A3042 RMK AO2 RAB0657 SLP206 P0013 T01500139 $





000
SAUS45 KABQ 290754
MTRTCS
METAR KTCS 290753Z AUTO 10009KT BKN065 BKN080 OVC110 22/15 A3025 RMK
AO2 SLP158 T02220150 TSNO $





000
SAUS45 KABQ 290753
MTRABQ
METAR KABQ 290752Z 09014KT 10SM -RA FEW049 SCT070 OVC110 19/15 A3031
RMK AO2 SLP182 P0001 T01940150





000
SAUS45 KABQ 290742 COR
MTRCQC
SPECI KCQC 290737Z AUTO 00000KT 4SM RA BR FEW011 BKN055 OVC070 15/14
A3042 RMK AO2 RAB0657 P0009 T01500139 $





000
SAUS45 KABQ 290740 COR
MTRCQC
SPECI KCQC 290737Z AUTO 00000KT 4SM RA BR FEW011 BKN055 OVC070 15/14
A3042 RMK AO2 RAB0657 P0009 T01500139 $





000
SAUS45 KABQ 290739 COR
MTRCQC
SPECI KCQC 290737Z AUTO 00000KT 4SM RA BR FEW011 BKN055 OVC070 15/14
A3042 RMK AO2 RAB0657 P0009 T01500139 $





000
SAUS45 KABQ 290739
MTRCQC
SPECI KCQC 290737Z AUTO 00000KT 4SM RA BR FEW011 BKN055 OVC070 15/14
A3042 RMK AO2 RAB0657 P0009 T01500139 $





000
SAUS45 KABQ 290657 COR
MTRCQC
METAR KCQC 290653Z AUTO 14004KT 10SM FEW010 BKN022 OVC070 15/14
A3044 RMK AO2 SLP221 T01500139 402610133 $





000
SAUS45 KABQ 290656 COR
MTRCQC
METAR KCQC 290653Z AUTO 14004KT 10SM FEW010 BKN022 OVC070 15/14
A3044 RMK AO2 SLP221 T01500139 402610133 $





000
SAUS45 KABQ 290655 COR
MTRCQC
METAR KCQC 290653Z AUTO 14004KT 10SM FEW010 BKN022 OVC070 15/14
A3044 RMK AO2 SLP221 T01500139 402610133 $





000
SAUS45 KABQ 290654
MTRCQC
METAR KCQC 290653Z AUTO 14004KT 10SM FEW010 BKN022 OVC070 15/14
A3044 RMK AO2 SLP221 T01500139 402610133 $





000
SAUS45 KABQ 290654
MTRTCS
METAR KTCS 290653Z AUTO 00000KT 10SM FEW075 OVC110 23/16 A3026 RMK
AO2 SLP161 T02330156 403110206 TSNO $





000
SAUS45 KABQ 290653
MTRABQ
METAR KABQ 290652Z 05010KT 10SM -RA OVC110 22/16 A3033 RMK AO2 WSHFT
0616 RAB27 SLP188 P0000 T02170161 403000206





000
SAUS45 KABQ 290637
MTRABQ
SPECI KABQ 290636Z 14011KT 10SM -RA FEW070 OVC095 21/16 A3033 RMK
AO2 WSHFT 0616 RAB27 P0000 T02110156





000
SAUS45 KABQ 290558 COR
MTRCQC
METAR KCQC 290553Z AUTO 10004KT 10SM BKN090 OVC110 14/13 A3045 RMK
AO2 RAE48 SLP223 P0005 60095 T01440128 10250 20139 $





000
SAUS45 KABQ 290556 COR
MTRCQC
METAR KCQC 290553Z AUTO 10004KT 10SM BKN090 OVC110 14/13 A3045 RMK
AO2 RAE48 SLP223 P0005 60095 T01440128 10250 20139 $





000
SAUS45 KABQ 290555 COR
MTRCQC
METAR KCQC 290553Z AUTO 10004KT 10SM BKN090 OVC110 14/13 A3045 RMK
AO2 RAE48 SLP223 P0005 60095 T01440128 10250 20139 $





000
SAUS45 KABQ 290554
MTRCQC
METAR KCQC 290553Z AUTO 10004KT 10SM BKN090 OVC110 14/13 A3045 RMK
AO2 RAE48 SLP223 P0005 60095 T01440128 10250 20139 $





000
SAUS45 KABQ 290554
MTRTCS
METAR KTCS 290553Z AUTO 09004KT 10SM FEW085 BKN120 23/14 A3026 RMK
AO2 SLP166 T02330144 10294 20233 50006 TSNO $





000
SAUS45 KABQ 290553
MTRABQ
METAR KABQ 290552Z 09015G20KT 10SM SCT070 BKN100 BKN200 22/13 A3032
RMK AO2 LTG DSNT SE RAB0457E10 SLP186 P0000 60000 T02220133 10294
20206 50006





000
SAUS45 KABQ 290458 COR
MTRCQC
METAR KCQC 290453Z AUTO 04007KT 3SM RA BR BKN039 OVC075 15/13 A3047
RMK AO2 SLP234 P0044 T01500128 $





000
SAUS45 KABQ 290456 COR
MTRCQC
METAR KCQC 290453Z AUTO 04007KT 3SM RA BR BKN039 OVC075 15/13 A3047
RMK AO2 SLP234 P0044 T01500128 $





000
SAUS45 KABQ 290455 COR
MTRCQC
METAR KCQC 290453Z AUTO 04007KT 3SM RA BR BKN039 OVC075 15/13 A3047
RMK AO2 SLP234 P0044 T01500128 $





000
SAUS45 KABQ 290454
MTRCQC
METAR KCQC 290453Z AUTO 04007KT 3SM RA BR BKN039 OVC075 15/13 A3047
RMK AO2 SLP234 P0044 T01500128 $





000
SAUS45 KABQ 290454
MTRTCS
METAR KTCS 290453Z AUTO 13008KT 10SM FEW120 23/15 A3027 RMK AO2
SLP168 T02330150 TSNO $





000
SAUS45 KABQ 290453
MTRABQ
METAR KABQ 290452Z 09007KT 10SM BKN090 BKN200 23/14 A3033 RMK AO2
SLP187 T02280144





000
SAUS45 KABQ 290433 COR
MTRCQC
SPECI KCQC 290428Z AUTO 26011KT 1 3/4SM +RA BR BKN033 BKN042 OVC085
14/13 A3048 RMK AO2 P0013 T01440128 $





000
SAUS45 KABQ 290431 COR
MTRCQC
SPECI KCQC 290428Z AUTO 26011KT 1 3/4SM +RA BR BKN033 BKN042 OVC085
14/13 A3048 RMK AO2 P0013 T01440128 $





000
SAUS45 KABQ 290430
MTRCQC
SPECI KCQC 290428Z AUTO 26011KT 1 3/4SM +RA BR BKN033 BKN042 OVC085
14/13 A3048 RMK AO2 P0013 T01440128 $





000
SAUS45 KABQ 290430 COR
MTRCQC
SPECI KCQC 290428Z AUTO 26011KT 1 3/4SM +RA BR BKN033 BKN042 OVC085
14/13 A3048 RMK AO2 P0013 T01440128 $





000
SAUS45 KABQ 290358 COR
MTRCQC
METAR KCQC 290353Z AUTO 08006KT 6SM -RA BR 15/14 A3046 RMK AO2
RAB31B46 SLP229 P0021 T01500139 $





    US Dept of Commerce
    National Oceanic and Atmospheric Administration
    National Weather Service
    1325 East West Highway
    Silver Spring, MD 20910
    Page Author: NWS Internet Services Team
Disclaimer
Information Quality
Credits
Glossary
Privacy Policy
Freedom of Information Act (FOIA)
About Us
Career Opportunities